^^
Your Local Weather - Clay, NY Station Historical Data
Daily Summary for April 2, 2017 Units:  Metric    English   Both
« Previous Day
Next Day »
Daily Weekly Monthly Yearly Custom
  High: Low: Average:
Temperature: 12.8 °C -2.1 °C 5.3 °C
Dew Point: 2.3 °C -3.1 °C -0.4 °C
Humidity: 94% 39% 70%
Wind Speed: 8km/h 0km/h 2.3km/h
Wind Gust: 14.5km/h - -
Wind- - WNW
Pressure: 1020.2 hPa 1017.5 hPa -
Precipitation: 0 mm    
Historical Graphs
 
 
Tabular Data for April 2, 2017
Time Temperature Dew Point Pressure Wind Wind Speed Wind Gust Humidity Rainfall Rate (Hourly) solar
00:00 -0.2 °C -1.4 °C 1019.2 hPa Calm     92% 0 mm 0 W/m2
00:02 -0.2 °C -1.3 °C 1019.2 hPa Calm     92% 0 mm 0 W/m2
00:08 -0.1 °C -1.3 °C 1019.2 hPa Calm     92% 0 mm 0 W/m2
00:14 0 °C -1.2 °C 1019.2 hPa Calm     92% 0 mm 0 W/m2
00:20 0.1 °C -1.1 °C 1019.2 hPa Calm     92% 0 mm 0 W/m2
00:26 0.1 °C -1.1 °C 1019.2 hPa Calm     92% 0 mm 0 W/m2
00:32 0.2 °C -0.9 °C 1019.2 hPa Calm     92% 0 mm 0 W/m2
00:38 0.3 °C -0.8 °C 1019.2 hPa Calm     92% 0 mm 0 W/m2
00:44 0.4 °C -0.8 °C 1019.2 hPa Calm     92% 0 mm 0 W/m2
00:50 0.4 °C -0.8 °C 1019.2 hPa Calm     92% 0 mm 0 W/m2
00:56 0.4 °C -0.8 °C 1019.2 hPa Calm     92% 0 mm 0 W/m2
01:02 0.4 °C -0.8 °C 1019.2 hPa Calm     92% 0 mm 0 W/m2
01:08 0.4 °C -0.7 °C 1019.2 hPa Calm     92% 0 mm 0 W/m2
01:14 0.4 °C -0.8 °C 1018.8 hPa Calm     92% 0 mm 0 W/m2
01:20 0.3 °C -0.8 °C 1018.8 hPa Calm     92% 0 mm 0 W/m2
01:26 0.2 °C -0.8 °C 1019.2 hPa Calm     93% 0 mm 0 W/m2
01:32 0.2 °C -1 °C 1018.8 hPa Calm     92% 0 mm 0 W/m2
01:38 0.1 °C -1.1 °C 1018.8 hPa Calm     92% 0 mm 0 W/m2
01:44 -0.1 °C -1.2 °C 1018.8 hPa Calm     92% 0 mm 0 W/m2
01:50 -0.2 °C -1.2 °C 1019.2 hPa Calm     93% 0 mm 0 W/m2
01:56 -0.2 °C -1.4 °C 1018.8 hPa Calm     92% 0 mm 0 W/m2
02:02 -0.3 °C -1.4 °C 1018.8 hPa Calm     92% 0 mm 0 W/m2
02:08 -0.3 °C -1.4 °C 1018.8 hPa Calm     92% 0 mm 0 W/m2
02:14 -0.2 °C -1.2 °C 1018.8 hPa Calm     93% 0 mm 0 W/m2
02:20 -0.2 °C -1.2 °C 1018.8 hPa Calm     93% 0 mm 0 W/m2
02:25 -0.3 °C -1.3 °C 1018.8 hPa Calm     93% 0 mm 0 W/m2
02:32 -0.4 °C -1.4 °C 1018.5 hPa Calm     93% 0 mm 0 W/m2
02:38 -0.6 °C -1.7 °C 1018.5 hPa Calm     92% 0 mm 0 W/m2
02:44 -0.6 °C -1.6 °C 1018.5 hPa Calm     93% 0 mm 0 W/m2
02:50 -0.7 °C -1.7 °C 1018.5 hPa Calm     93% 0 mm 0 W/m2
02:56 -0.8 °C -1.9 °C 1018.5 hPa Calm     92% 0 mm 0 W/m2
03:02 -0.9 °C -1.9 °C 1018.5 hPa Calm     93% 0 mm 0 W/m2
03:06 -1 °C -2 °C 1018.5 hPa Calm     93% 0 mm 0 W/m2
03:12 -1.2 °C -2.3 °C 1018.5 hPa Calm     92% 0 mm 0 W/m2
03:18 -1.3 °C -2.4 °C 1018.5 hPa Calm     92% 0 mm 0 W/m2
03:24 -1.3 °C -2.3 °C 1018.5 hPa Calm     93% 0 mm 0 W/m2
03:30 -1.4 °C -2.4 °C 1018.5 hPa Calm     93% 0 mm 0 W/m2
03:36 -1.5 °C -2.5 °C 1018.5 hPa Calm     93% 0 mm 0 W/m2
03:42 -1.5 °C -2.5 °C 1018.5 hPa Calm     93% 0 mm 0 W/m2
03:48 -1.5 °C -2.5 °C 1018.5 hPa Calm     93% 0 mm 0 W/m2
03:54 -1.4 °C -2.4 °C 1018.5 hPa Calm   3.2 km/h 93% 0 mm 0 W/m2
04:00 -1.3 °C -2.3 °C 1018.5 hPa Calm     93% 0 mm 0 W/m2
04:06 -1.1 °C -2.1 °C 1018.5 hPa Calm     93% 0 mm 0 W/m2
04:12 -0.9 °C -1.9 °C 1018.5 hPa Calm     93% 0 mm 0 W/m2
04:18 -0.8 °C -1.8 °C 1018.5 hPa Calm     93% 0 mm 0 W/m2
04:24 -0.8 °C -1.8 °C 1018.5 hPa Calm     93% 0 mm 0 W/m2
04:30 -0.9 °C -1.9 °C 1018.5 hPa Calm     93% 0 mm 0 W/m2
04:36 -1.1 °C -2.1 °C 1018.5 hPa Calm     93% 0 mm 0 W/m2
04:42 -1.2 °C -2.2 °C 1018.5 hPa Calm     93% 0 mm 0 W/m2
04:48 -1.3 °C -2.3 °C 1018.5 hPa Calm     93% 0 mm 0 W/m2
04:54 -1.4 °C -2.4 °C 1018.5 hPa Calm     93% 0 mm 0 W/m2
05:00 -1.4 °C -2.4 °C 1018.8 hPa Calm     93% 0 mm 0 W/m2
05:06 -1.5 °C -2.5 °C 1018.8 hPa Calm     93% 0 mm 0 W/m2
05:12 -1.6 °C -2.6 °C 1019.2 hPa Calm     93% 0 mm 0 W/m2
05:18 -1.8 °C -2.8 °C 1019.2 hPa Calm     93% 0 mm 0 W/m2
05:26 -1.8 °C -2.8 °C 1019.2 hPa Calm     93% 0 mm 0 W/m2
05:32 -1.9 °C -2.9 °C 1019.2 hPa Calm     93% 0 mm 0 W/m2
05:38 -1.9 °C -2.9 °C 1019.5 hPa Calm     93% 0 mm 0 W/m2
05:44 -2 °C -3 °C 1019.5 hPa Calm     93% 0 mm 0 W/m2
05:50 -2.1 °C -3.1 °C 1019.5 hPa Calm     93% 0 mm 0 W/m2
05:56 -2 °C -3 °C 1019.5 hPa Calm     93% 0 mm 0 W/m2
06:02 -2 °C -3 °C 1019.5 hPa Calm     93% 0 mm 0 W/m2
06:08 -2 °C -3 °C 1019.5 hPa Calm     93% 0 mm 0 W/m2
06:14 -2.1 °C -3.1 °C 1019.9 hPa Calm     93% 0 mm 0 W/m2
06:19 -2.1 °C -3.1 °C 1019.9 hPa Calm     93% 0 mm 0 W/m2
06:26 -2.1 °C -3.1 °C 1019.9 hPa Calm     93% 0 mm 0 W/m2
06:32 -2 °C -3 °C 1019.9 hPa Calm     93% 0 mm 0 W/m2
06:38 -2 °C -3 °C 1019.9 hPa Calm     93% 0 mm 0 W/m2
06:44 -2.1 °C -3.1 °C 1019.9 hPa Calm     93% 0 mm 0 W/m2
06:50 -2 °C -3 °C 1019.9 hPa Calm     93% 0 mm 7 W/m2
06:56 -2 °C -3 °C 1019.9 hPa Calm     93% 0 mm 9 W/m2
07:02 -2.1 °C -3.1 °C 1019.9 hPa Calm     93% 0 mm 12 W/m2
07:08 -2.1 °C -3.1 °C 1019.9 hPa Calm     93% 0 mm 18 W/m2
07:14 -2.1 °C -3.1 °C 1020.2 hPa Calm     93% 0 mm 26 W/m2
07:20 -1.9 °C -2.9 °C 1019.9 hPa Calm     93% 0 mm 44 W/m2
07:26 -1.7 °C -2.7 °C 1019.9 hPa Calm     93% 0 mm 54 W/m2
07:32 -1.5 °C -2.5 °C 1019.9 hPa Calm     93% 0 mm 58 W/m2
07:38 -1.2 °C -2.2 °C 1019.9 hPa Calm     93% 0 mm 56 W/m2
07:44 -0.8 °C -1.8 °C 1019.9 hPa Calm     93% 0 mm 65 W/m2
07:50 -0.6 °C -1.4 °C 1019.9 hPa Calm     94% 0 mm 90 W/m2
07:56 -0.3 °C -1.2 °C 1019.9 hPa Calm     94% 0 mm 121 W/m2
08:02 0 °C -0.8 °C 1019.9 hPa Calm     94% 0 mm 155 W/m2
08:08 0.6 °C -0.2 °C 1020.2 hPa Calm     94% 0 mm 211 W/m2
08:14 0.9 °C 0.1 °C 1020.2 hPa Calm     94% 0 mm 56 W/m2
08:20 0.7 °C -0.1 °C 1020.2 hPa Calm     94% 0 mm 60 W/m2
08:26 0.7 °C -0.1 °C 1020.2 hPa Calm     94% 0 mm 171 W/m2
08:32 1.2 °C 0.3 °C 1020.2 hPa Calm     94% 0 mm 118 W/m2
08:38 1.4 °C 0.6 °C 1020.2 hPa Calm     94% 0 mm 132 W/m2
08:44 1.8 °C 0.9 °C 1020.2 hPa Calm     94% 0 mm 100 W/m2
08:50 1.9 °C 1 °C 1020.2 hPa Calm     94% 0 mm 104 W/m2
08:56 2.1 °C 1.2 °C 1020.2 hPa Calm     94% 0 mm 141 W/m2
09:02 2.4 °C 1.6 °C 1020.2 hPa Calm   1.6 km/h 94% 0 mm 132 W/m2
09:08 2.7 °C 1.8 °C 1020.2 hPa Calm   1.6 km/h 94% 0 mm 171 W/m2
09:14 3.1 °C 2.2 °C 1020.2 hPa Calm   1.6 km/h 94% 0 mm 151 W/m2
09:20 3.2 °C 2.2 °C 1020.2 hPa WSW 1.6 km/h 1.6 km/h 93% 0 mm 98 W/m2
09:25 3.5 °C 2 °C 1019.9 hPa WSW 1.6 km/h 1.6 km/h 90% 0 mm 294 W/m2
09:32 4.2 °C 2.2 °C 1019.9 hPa WSW 1.6 km/h 4.8 km/h 87% 0 mm 359 W/m2
09:38 4.8 °C 1.6 °C 1020.2 hPa SW 3.2 km/h 6.4 km/h 80% 0 mm 571 W/m2
09:44 5.1 °C 1.1 °C 1020.2 hPa West 3.2 km/h 3.2 km/h 75% 0 mm 197 W/m2
09:50 5.1 °C 0.6 °C 1020.2 hPa West 3.2 km/h 6.4 km/h 73% 0 mm 176 W/m2
09:56 5.7 °C 1.1 °C 1020.2 hPa WSW 3.2 km/h 6.4 km/h 72% 0 mm 605 W/m2
10:02 6.4 °C 1.6 °C 1020.2 hPa WSW 1.6 km/h 1.6 km/h 71% 0 mm 591 W/m2
10:08 7.2 °C 1.4 °C 1020.2 hPa West 1.6 km/h 6.4 km/h 67% 0 mm 615 W/m2
10:14 7.6 °C 1.7 °C 1020.2 hPa West 1.6 km/h 4.8 km/h 66% 0 mm 345 W/m2
10:20 7.7 °C 1.3 °C 1020.2 hPa NW 1.6 km/h 4.8 km/h 64% 0 mm 387 W/m2
10:26 7.4 °C 0.3 °C 1020.2 hPa WNW 4.8 km/h 4.8 km/h 61% 0 mm 422 W/m2
10:32 7.6 °C 1 °C 1020.2 hPa West 3.2 km/h 4.8 km/h 63% 0 mm 323 W/m2
10:38 7.9 °C 0.4 °C 1020.2 hPa NW 3.2 km/h 6.4 km/h 59% 0 mm 360 W/m2
10:44 8.2 °C 0.7 °C 1020.2 hPa NW 3.2 km/h 9.7 km/h 59% 0 mm 679 W/m2
10:50 8.4 °C 0.7 °C 1020.2 hPa WNW 3.2 km/h 3.2 km/h 58% 0 mm 682 W/m2
10:56 8.7 °C 0.7 °C 1020.2 hPa NW 4.8 km/h 6.4 km/h 57% 0 mm 696 W/m2
11:02 9.1 °C 0.6 °C 1019.9 hPa WNW 4.8 km/h 4.8 km/h 55% 0 mm 712 W/m2
11:08 9.3 °C 1.9 °C 1020.2 hPa West 4.8 km/h 6.4 km/h 60% 0 mm 722 W/m2
11:14 9.4 °C 1.3 °C 1019.9 hPa West 3.2 km/h 8 km/h 57% 0 mm 733 W/m2
11:20 9.2 °C 1.3 °C 1019.9 hPa SSW 3.2 km/h 3.2 km/h 58% 0 mm 745 W/m2
11:26 10.2 °C 2.3 °C 1019.5 hPa NNW 3.2 km/h 4.8 km/h 58% 0 mm 758 W/m2
11:32 10.3 °C 0.6 °C 1019.5 hPa NW 3.2 km/h 9.7 km/h 51% 0 mm 763 W/m2
11:38 10.1 °C 0.6 °C 1019.5 hPa West 6.4 km/h 9.7 km/h 52% 0 mm 772 W/m2
11:44 10 °C 1.4 °C 1019.5 hPa WNW 8 km/h 11.3 km/h 55% 0 mm 779 W/m2
11:50 10.2 °C 0.5 °C 1019.5 hPa WNW 6.4 km/h 8 km/h 51% 0 mm 789 W/m2
11:56 10.4 °C -0.4 °C 1019.5 hPa West 6.4 km/h 9.7 km/h 47% 0 mm 795 W/m2
12:02 10.4 °C 0.7 °C 1019.2 hPa NW 6.4 km/h 8 km/h 51% 0 mm 802 W/m2
12:08 10.4 °C -0.2 °C 1019.2 hPa WSW 8 km/h 11.3 km/h 48% 0 mm 807 W/m2
12:14 10.6 °C -0.9 °C 1019.2 hPa WSW 8 km/h 11.3 km/h 45% 0 mm 810 W/m2
12:20 10.9 °C -0.6 °C 1019.2 hPa WNW 6.4 km/h 8 km/h 45% 0 mm 814 W/m2
12:26 10.9 °C 0.1 °C 1019.2 hPa WNW 6.4 km/h 8 km/h 47% 0 mm 819 W/m2
12:32 11.1 °C 0.8 °C 1019.2 hPa WNW 8 km/h 8 km/h 49% 0 mm 823 W/m2
12:38 11.1 °C -0.4 °C 1019.2 hPa NNW 8 km/h 14.5 km/h 45% 0 mm 826 W/m2
12:44 11.4 °C -0.1 °C 1018.8 hPa SSW 6.4 km/h 11.3 km/h 45% 0 mm 826 W/m2
12:50 11 °C -0.5 °C 1018.8 hPa WNW 4.8 km/h 6.4 km/h 45% 0 mm 543 W/m2
12:56 11.1 °C 0.2 °C 1018.5 hPa WSW 6.4 km/h 6.4 km/h 47% 0 mm 717 W/m2
13:02 11.4 °C 0.8 °C 1018.5 hPa WNW 4.8 km/h 6.4 km/h 48% 0 mm 816 W/m2
13:08 11.9 °C 1.8 °C 1018.5 hPa NW 4.8 km/h 9.7 km/h 50% 0 mm 657 W/m2
13:14 11.7 °C 0.2 °C 1018.5 hPa WNW 4.8 km/h 9.7 km/h 45% 0 mm 566 W/m2
13:20 11.5 °C -0.1 °C 1018.5 hPa WNW 6.4 km/h 6.4 km/h 45% 0 mm 691 W/m2
13:26 11.8 °C 0.2 °C 1018.5 hPa WNW 8 km/h 9.7 km/h 45% 0 mm 649 W/m2
13:32 11.7 °C 1.6 °C 1018.5 hPa NNW 8 km/h 12.9 km/h 50% 0 mm 568 W/m2
13:38 12.2 °C 1.2 °C 1018.5 hPa WNW 8 km/h 12.9 km/h 47% 0 mm 673 W/m2
13:44 11.8 °C 0.8 °C 1018.5 hPa NW 8 km/h 12.9 km/h 47% 0 mm 1123 W/m2
13:50 11.9 °C 1.3 °C 1018.2 hPa NNW 8 km/h 8 km/h 48% 0 mm 877 W/m2
13:56 11.8 °C 0.8 °C 1018.2 hPa NNW 8 km/h 11.3 km/h 47% 0 mm 844 W/m2
14:02 11.8 °C 1.2 °C 1018.2 hPa NW 8 km/h 9.7 km/h 48% 0 mm 752 W/m2
14:08 11.9 °C 1.6 °C 1018.2 hPa NW 6.4 km/h 9.7 km/h 49% 0 mm 937 W/m2
14:14 12.1 °C 2.3 °C 1018.2 hPa WNW 6.4 km/h 8 km/h 51% 0 mm 930 W/m2
14:20 12.3 °C 2.2 °C 1018.2 hPa WNW 8 km/h 8 km/h 50% 0 mm 930 W/m2
14:26 12.1 °C 2 °C 1018.2 hPa West 8 km/h 8 km/h 50% 0 mm 838 W/m2
14:32 12.3 °C 1.6 °C 1018.2 hPa NW 8 km/h 8 km/h 48% 0 mm 946 W/m2
14:38 12.3 °C 1.9 °C 1018.2 hPa NE 8 km/h 9.7 km/h 49% 0 mm 847 W/m2
14:44 11.9 °C 1.8 °C 1018.2 hPa WNW 8 km/h 8 km/h 50% 0 mm 779 W/m2
14:50 12.2 °C 0.9 °C 1018.2 hPa North 6.4 km/h 9.7 km/h 46% 0 mm 545 W/m2
14:56 11.6 °C 0.9 °C 1018.2 hPa NW 8 km/h 9.7 km/h 48% 0 mm 571 W/m2
15:02 12 °C 2.2 °C 1018.2 hPa NW 8 km/h 9.7 km/h 51% 0 mm 874 W/m2
15:08 12.3 °C 1.3 °C 1018.2 hPa WNW 6.4 km/h 9.7 km/h 47% 0 mm 842 W/m2
15:14 12.2 °C 0.9 °C 1018.2 hPa NNW 6.4 km/h 14.5 km/h 46% 0 mm 765 W/m2
15:20 12.6 °C 0.7 °C 1018.2 hPa WNW 6.4 km/h 6.4 km/h 44% 0 mm 735 W/m2
15:26 12.1 °C -0.1 °C 1018.2 hPa NNW 8 km/h 11.3 km/h 43% 0 mm 687 W/m2
15:32 12.1 °C 0.2 °C 1018.2 hPa NW 8 km/h 8 km/h 44% 0 mm 666 W/m2
15:38 12.2 °C 0.6 °C 1018.2 hPa WNW 6.4 km/h 8 km/h 45% 0 mm 659 W/m2
15:44 12.3 °C 1 °C 1018.2 hPa NNW 6.4 km/h 11.3 km/h 46% 0 mm 578 W/m2
15:50 12.7 °C 1.6 °C 1018.2 hPa NW 4.8 km/h 4.8 km/h 47% 0 mm 621 W/m2
15:58 12.5 °C 1.5 °C 1018.2 hPa NNW 4.8 km/h 12.9 km/h 47% 0 mm 566 W/m2
16:04 12.2 °C 0.6 °C 1018.5 hPa NNW 6.4 km/h 11.3 km/h 45% 0 mm 541 W/m2
16:10 12.1 °C 0.2 °C 1018.2 hPa NW 8 km/h 8 km/h 44% 0 mm 589 W/m2
16:16 12.5 °C 0.2 °C 1018.5 hPa WNW 8 km/h 8 km/h 43% 0 mm 592 W/m2
16:22 12.7 °C 0.4 °C 1018.2 hPa WNW 8 km/h 8 km/h 43% 0 mm 568 W/m2
16:28 12.8 °C 0.2 °C 1018.2 hPa WSW 6.4 km/h 8 km/h 42% 0 mm 547 W/m2
16:34 12.4 °C 0.4 °C 1018.2 hPa NW 8 km/h 8 km/h 44% 0 mm 520 W/m2
16:40 12.1 °C 0.5 °C 1018.2 hPa NNW 8 km/h 8 km/h 45% 0 mm 487 W/m2
16:46 12.3 °C 0.7 °C 1018.2 hPa NW 8 km/h 9.7 km/h 45% 0 mm 480 W/m2
16:52 12.6 °C -0.1 °C 1018.2 hPa NNW 6.4 km/h 9.7 km/h 42% 0 mm 468 W/m2
17:00 12.7 °C -0.9 °C 1018.2 hPa WNW 6.4 km/h 6.4 km/h 39% 0 mm 455 W/m2
17:06 12.4 °C -1.2 °C 1017.8 hPa NW 6.4 km/h 9.7 km/h 39% 0 mm 425 W/m2
17:12 12.4 °C -0.1 °C 1017.8 hPa WNW 6.4 km/h 6.4 km/h 42% 0 mm 371 W/m2
17:18 12.6 °C -0.7 °C 1017.8 hPa WNW 4.8 km/h 8 km/h 40% 0 mm 360 W/m2
17:24 12.4 °C -0.5 °C 1017.8 hPa NW 6.4 km/h 9.7 km/h 41% 0 mm 346 W/m2
17:30 12.3 °C -0.6 °C 1017.8 hPa NNW 6.4 km/h 6.4 km/h 41% 0 mm 318 W/m2
17:36 12.3 °C -0.9 °C 1017.8 hPa WNW 4.8 km/h 6.4 km/h 40% 0 mm 295 W/m2
17:42 12.1 °C -1.4 °C 1017.8 hPa West 6.4 km/h 12.9 km/h 39% 0 mm 257 W/m2
17:48 12.3 °C 0.1 °C 1017.8 hPa WNW 4.8 km/h 12.9 km/h 43% 0 mm 294 W/m2
17:54 12.4 °C -0.8 °C 1017.8 hPa WNW 3.2 km/h 4.8 km/h 40% 0 mm 269 W/m2
18:00 12.2 °C -1 °C 1017.8 hPa NW 4.8 km/h 4.8 km/h 40% 0 mm 151 W/m2
18:06 12.1 °C -1.2 °C 1017.8 hPa WNW 3.2 km/h 4.8 km/h 40% 0 mm 146 W/m2
18:12 11.9 °C -0.6 °C 1017.8 hPa WNW 3.2 km/h 4.8 km/h 42% 0 mm 118 W/m2
18:18 11.7 °C -1.1 °C 1017.8 hPa WNW 3.2 km/h 4.8 km/h 41% 0 mm 86 W/m2
18:24 11.6 °C -0.6 °C 1017.8 hPa WNW 3.2 km/h 4.8 km/h 43% 0 mm 107 W/m2
18:30 11.4 °C -0.4 °C 1017.8 hPa NW 3.2 km/h 3.2 km/h 44% 0 mm 88 W/m2
18:36 11.3 °C -0.6 °C 1017.8 hPa NW 3.2 km/h 4.8 km/h 44% 0 mm 83 W/m2
18:42 11.1 °C -1 °C 1017.8 hPa NW 3.2 km/h 3.2 km/h 43% 0 mm 79 W/m2
18:48 10.9 °C -0.6 °C 1017.8 hPa WNW 3.2 km/h 3.2 km/h 45% 0 mm 67 W/m2
18:54 10.9 °C -0.3 °C 1017.8 hPa WNW 1.6 km/h 3.2 km/h 46% 0 mm 54 W/m2
19:00 10.7 °C -0.5 °C 1017.8 hPa WNW 1.6 km/h 1.6 km/h 46% 0 mm 33 W/m2
19:06 10.5 °C -0.3 °C 1017.8 hPa Calm   1.6 km/h 47% 0 mm 26 W/m2
19:12 10.3 °C -0.6 °C 1017.8 hPa Calm     47% 0 mm 21 W/m2
19:18 10.1 °C -0.4 °C 1017.8 hPa Calm   1.6 km/h 48% 0 mm 14 W/m2
19:24 9.9 °C -0.3 °C 1017.8 hPa Calm     49% 0 mm 7 W/m2
19:30 9.7 °C -0.6 °C 1017.8 hPa Calm     49% 0 mm 0 W/m2
19:36 9.4 °C -0.4 °C 1017.5 hPa Calm     50% 0 mm 0 W/m2
19:42 9.1 °C -0.8 °C 1017.8 hPa Calm     50% 0 mm 0 W/m2
19:48 8.8 °C -0.5 °C 1017.5 hPa Calm     52% 0 mm 0 W/m2
19:54 8.4 °C -0.2 °C 1017.8 hPa Calm     55% 0 mm 0 W/m2
20:00 7.9 °C 0.2 °C 1017.8 hPa Calm     58% 0 mm 0 W/m2
20:05 7.6 °C -0.4 °C 1017.8 hPa Calm     57% 0 mm 0 W/m2
20:12 7.3 °C -0.4 °C 1017.8 hPa Calm     58% 0 mm 0 W/m2
20:18 6.9 °C -0.5 °C 1017.8 hPa Calm     59% 0 mm 0 W/m2
20:24 6.6 °C -0.2 °C 1017.5 hPa Calm     62% 0 mm 0 W/m2
20:29 6.3 °C 0 °C 1017.5 hPa Calm     64% 0 mm 0 W/m2
20:36 6.1 °C -0.2 °C 1017.5 hPa Calm     64% 0 mm 0 W/m2
20:42 5.8 °C -0.5 °C 1017.5 hPa Calm     64% 0 mm 0 W/m2
20:48 5.6 °C -0.4 °C 1017.5 hPa Calm     65% 0 mm 0 W/m2
20:53 5.6 °C -0.3 °C 1017.5 hPa Calm     66% 0 mm 0 W/m2
21:00 5.4 °C -0.4 °C 1017.5 hPa Calm     66% 0 mm 0 W/m2
21:06 5.3 °C -0.6 °C 1017.5 hPa Calm     66% 0 mm 0 W/m2
21:12 5.1 °C -0.5 °C 1017.5 hPa Calm     67% 0 mm 0 W/m2
21:18 4.9 °C -0.3 °C 1017.8 hPa Calm     69% 0 mm 0 W/m2
21:24 4.8 °C -0.4 °C 1017.8 hPa Calm     69% 0 mm 0 W/m2
21:30 4.7 °C -0.2 °C 1017.8 hPa Calm     71% 0 mm 0 W/m2
21:36 4.5 °C -0.5 °C 1017.8 hPa Calm     70% 0 mm 0 W/m2
21:42 4.4 °C -0.6 °C 1017.8 hPa Calm     70% 0 mm 0 W/m2
21:48 4.3 °C -0.3 °C 1017.8 hPa Calm     72% 0 mm 0 W/m2
21:54 4.3 °C -0.5 °C 1017.8 hPa Calm     71% 0 mm 0 W/m2
22:00 4.2 °C -0.4 °C 1017.8 hPa Calm     72% 0 mm 0 W/m2
22:06 4 °C -0.6 °C 1017.5 hPa Calm     72% 0 mm 0 W/m2
22:14 3.8 °C -0.8 °C 1017.5 hPa Calm     72% 0 mm 0 W/m2
22:20 3.8 °C -0.4 °C 1017.5 hPa Calm     74% 0 mm 0 W/m2
22:26 3.8 °C -0.4 °C 1017.5 hPa Calm     74% 0 mm 0 W/m2
22:32 3.8 °C -0.2 °C 1017.5 hPa Calm     75% 0 mm 0 W/m2
22:38 3.9 °C -0.1 °C 1017.8 hPa Calm     75% 0 mm 0 W/m2
22:44 4 °C 0.2 °C 1017.8 hPa Calm     76% 0 mm 0 W/m2
22:50 4.1 °C 0.3 °C 1017.8 hPa Calm     76% 0 mm 0 W/m2
22:56 4.2 °C 0.3 °C 1017.8 hPa Calm     76% 0 mm 0 W/m2
23:02 4.3 °C 0.4 °C 1017.5 hPa Calm     76% 0 mm 0 W/m2
23:08 4.4 °C 0.7 °C 1017.5 hPa Calm     77% 0 mm 0 W/m2
23:13 4.4 °C 1.1 °C 1017.5 hPa Calm     79% 0 mm 0 W/m2
23:20 4.6 °C 1.1 °C 1017.5 hPa Calm     78% 0 mm 0 W/m2
23:26 4.6 °C 0.9 °C 1017.8 hPa Calm     77% 0 mm 0 W/m2
23:32 4.7 °C 1 °C 1017.5 hPa Calm     77% 0 mm 0 W/m2
23:38 4.7 °C 1.1 °C 1017.8 hPa Calm     77% 0 mm 0 W/m2
23:44 4.8 °C 1.1 °C 1017.5 hPa Calm     77% 0 mm 0 W/m2
23:50 4.8 °C 0.9 °C 1017.8 hPa Calm     76% 0 mm 0 W/m2
23:55 4.7 °C 0.7 °C 1017.5 hPa Calm     75% 0 mm 0 W/m2
Country Meadow, Clay, NY, USA
Compliments of Weather Underground - 2 mb